sensor_id;sensor_type;location;lat;lon;timestamp;pressure;altitude;pressure_sealevel;temperature;humidity
83100;BME280;72972;51.784;4.660;2024-02-16T00:00:18;101077.75;;;11.47;84.11
83100;BME280;72972;51.784;4.660;2024-02-16T00:02:46;101097.75;;;11.62;84.08
83100;BME280;72972;51.784;4.660;2024-02-16T00:05:12;101054.63;;;11.35;84.33
83100;BME280;72972;51.784;4.660;2024-02-16T00:07:38;101088.16;;;11.51;84.33
83100;BME280;72972;51.784;4.660;2024-02-16T00:10:06;101054.63;;;11.35;84.03
83100;BME280;72972;51.784;4.660;2024-02-16T00:12:32;101076.25;;;11.44;83.96
83100;BME280;72972;51.784;4.660;2024-02-16T00:15:03;101074.81;;;11.48;84.01
83100;BME280;72972;51.784;4.660;2024-02-16T00:17:32;101055.66;;;11.34;84.05
83100;BME280;72972;51.784;4.660;2024-02-16T00:19:59;101083.44;;;11.45;84.59
83100;BME280;72972;51.784;4.660;2024-02-16T00:22:28;101099.41;;;11.56;84.27
83100;BME280;72972;51.784;4.660;2024-02-16T00:24:54;101075.13;;;11.39;84.25
83100;BME280;72972;51.784;4.660;2024-02-16T00:27:20;101067.09;;;11.37;83.77
83100;BME280;72972;51.784;4.660;2024-02-16T00:29:45;101064.75;;;11.34;84.25
83100;BME280;72972;51.784;4.660;2024-02-16T00:32:14;101067.97;;;11.38;84.07
83100;BME280;72972;51.784;4.660;2024-02-16T00:34:40;101070.44;;;11.33;83.99
83100;BME280;72972;51.784;4.660;2024-02-16T00:37:07;101064.94;;;11.33;83.84
83100;BME280;72972;51.784;4.660;2024-02-16T00:39:40;101077.50;;;11.42;83.60
83100;BME280;72972;51.784;4.660;2024-02-16T00:42:11;101066.44;;;11.35;83.77
83100;BME280;72972;51.784;4.660;2024-02-16T00:44:38;101080.50;;;11.47;83.38
83100;BME280;72972;51.784;4.660;2024-02-16T00:47:36;101072.66;;;11.44;83.20
83100;BME280;72972;51.784;4.660;2024-02-16T00:50:11;101046.97;;;11.30;83.05
83100;BME280;72972;51.784;4.660;2024-02-16T00:52:50;101050.16;;;11.34;83.24
83100;BME280;72972;51.784;4.660;2024-02-16T00:55:24;101030.91;;;11.27;82.98
83100;BME280;72972;51.784;4.660;2024-02-16T00:57:56;101048.28;;;11.34;83.15
83100;BME280;72972;51.784;4.660;2024-02-16T01:00:24;101037.69;;;11.31;83.08
83100;BME280;72972;51.784;4.660;2024-02-16T01:02:52;101039.75;;;11.29;83.26
83100;BME280;72972;51.784;4.660;2024-02-16T01:05:18;101035.13;;;11.30;82.81
83100;BME280;72972;51.784;4.660;2024-02-16T01:07:44;101021.72;;;11.20;82.99
83100;BME280;72972;51.784;4.660;2024-02-16T01:10:13;101055.53;;;11.42;82.74
83100;BME280;72972;51.784;4.660;2024-02-16T01:12:42;101036.00;;;11.30;82.55
83100;BME280;72972;51.784;4.660;2024-02-16T01:15:11;101015.00;;;11.23;82.67
83100;BME280;72972;51.784;4.660;2024-02-16T01:17:45;101020.50;;;11.23;82.32
83100;BME280;72972;51.784;4.660;2024-02-16T01:20:12;101027.97;;;11.29;82.94
83100;BME280;72972;51.784;4.660;2024-02-16T01:22:39;101030.69;;;11.29;82.81
83100;BME280;72972;51.784;4.660;2024-02-16T01:25:05;101006.31;;;11.19;83.22
83100;BME280;72972;51.784;4.660;2024-02-16T01:27:31;101022.25;;;11.30;82.70
83100;BME280;72972;51.784;4.660;2024-02-16T01:29:57;101002.31;;;11.22;82.85
83100;BME280;72972;51.784;4.660;2024-02-16T01:32:23;101023.16;;;11.37;82.84
83100;BME280;72972;51.784;4.660;2024-02-16T01:34:52;101037.78;;;11.44;82.61
83100;BME280;72972;51.784;4.660;2024-02-16T01:37:23;101017.59;;;11.31;82.56
83100;BME280;72972;51.784;4.660;2024-02-16T01:39:49;101009.97;;;11.26;82.60
83100;BME280;72972;51.784;4.660;2024-02-16T01:42:18;101047.28;;;11.42;82.87
83100;BME280;72972;51.784;4.660;2024-02-16T01:44:44;101024.53;;;11.27;83.13
83100;BME280;72972;51.784;4.660;2024-02-16T01:47:13;101015.41;;;11.20;83.69
83100;BME280;72972;51.784;4.660;2024-02-16T01:49:39;101007.31;;;11.12;83.74
83100;BME280;72972;51.784;4.660;2024-02-16T01:52:08;101027.69;;;11.24;83.79
83100;BME280;72972;51.784;4.660;2024-02-16T01:54:40;101034.22;;;11.23;83.86
83100;BME280;72972;51.784;4.660;2024-02-16T01:57:14;101003.81;;;11.03;83.64
83100;BME280;72972;51.784;4.660;2024-02-16T01:59:40;101019.06;;;11.06;83.92
83100;BME280;72972;51.784;4.660;2024-02-16T02:02:09;101006.72;;;10.95;83.82
83100;BME280;72972;51.784;4.660;2024-02-16T02:04:36;101023.69;;;11.05;83.96
83100;BME280;72972;51.784;4.660;2024-02-16T02:07:14;101026.56;;;10.97;84.12
83100;BME280;72972;51.784;4.660;2024-02-16T02:09:46;101029.97;;;10.99;84.15
83100;BME280;72972;51.784;4.660;2024-02-16T02:12:15;101019.09;;;10.91;83.82
83100;BME280;72972;51.784;4.660;2024-02-16T02:14:41;101015.34;;;10.92;83.50
83100;BME280;72972;51.784;4.660;2024-02-16T02:17:10;101007.03;;;10.86;83.68
83100;BME280;72972;51.784;4.660;2024-02-16T02:19:35;101016.56;;;10.90;83.75
83100;BME280;72972;51.784;4.660;2024-02-16T02:22:04;101018.28;;;10.91;83.61
83100;BME280;72972;51.784;4.660;2024-02-16T02:24:33;101021.03;;;10.91;83.72
83100;BME280;72972;51.784;4.660;2024-02-16T02:27:01;101015.72;;;10.89;84.02
83100;BME280;72972;51.784;4.660;2024-02-16T02:29:28;101002.97;;;10.82;83.55
83100;BME280;72972;51.784;4.660;2024-02-16T02:31:57;101018.88;;;10.86;83.73
83100;BME280;72972;51.784;4.660;2024-02-16T02:34:26;101021.03;;;10.91;83.99
83100;BME280;72972;51.784;4.660;2024-02-16T02:36:54;101003.97;;;10.74;84.72
83100;BME280;72972;51.784;4.660;2024-02-16T02:39:23;101010.94;;;10.77;84.67
83100;BME280;72972;51.784;4.660;2024-02-16T02:41:54;101002.22;;;10.73;84.42
83100;BME280;72972;51.784;4.660;2024-02-16T02:44:22;100977.66;;;10.65;84.63
83100;BME280;72972;51.784;4.660;2024-02-16T02:46:48;100996.56;;;10.75;84.54
83100;BME280;72972;51.784;4.660;2024-02-16T02:49:20;100975.84;;;10.72;83.94
83100;BME280;72972;51.784;4.660;2024-02-16T02:51:45;100977.31;;;10.68;83.95
83100;BME280;72972;51.784;4.660;2024-02-16T02:54:14;100987.75;;;10.79;83.77
83100;BME280;72972;51.784;4.660;2024-02-16T02:56:53;100984.16;;;10.79;84.20
83100;BME280;72972;51.784;4.660;2024-02-16T02:59:19;101000.47;;;10.87;84.14
83100;BME280;72972;51.784;4.660;2024-02-16T03:01:48;100974.81;;;10.73;83.96
83100;BME280;72972;51.784;4.660;2024-02-16T03:04:14;100960.66;;;10.70;83.64
83100;BME280;72972;51.784;4.660;2024-02-16T03:06:39;100983.59;;;10.83;83.72
83100;BME280;72972;51.784;4.660;2024-02-16T03:09:09;100970.19;;;10.74;83.92
83100;BME280;72972;51.784;4.660;2024-02-16T03:11:36;100995.75;;;10.95;83.68
83100;BME280;72972;51.784;4.660;2024-02-16T03:14:02;100957.53;;;10.73;83.67
83100;BME280;72972;51.784;4.660;2024-02-16T03:16:36;100965.16;;;10.77;83.92
83100;BME280;72972;51.784;4.660;2024-02-16T03:19:06;100996.13;;;10.92;83.63
83100;BME280;72972;51.784;4.660;2024-02-16T03:21:31;101004.59;;;10.97;84.22
83100;BME280;72972;51.784;4.660;2024-02-16T03:23:57;100971.16;;;10.87;83.66
83100;BME280;72972;51.784;4.660;2024-02-16T03:26:23;100965.78;;;10.79;83.93
83100;BME280;72972;51.784;4.660;2024-02-16T03:28:49;100970.31;;;10.87;83.93
83100;BME280;72972;51.784;4.660;2024-02-16T03:31:24;100952.53;;;10.83;83.93
83100;BME280;72972;51.784;4.660;2024-02-16T03:33:52;100982.84;;;10.96;83.92
83100;BME280;72972;51.784;4.660;2024-02-16T03:36:24;100978.59;;;10.93;84.04
83100;BME280;72972;51.784;4.660;2024-02-16T03:38:50;100959.28;;;10.80;83.71
83100;BME280;72972;51.784;4.660;2024-02-16T03:41:37;100989.19;;;10.96;84.13
83100;BME280;72972;51.784;4.660;2024-02-16T03:44:10;100989.59;;;10.93;84.32
83100;BME280;72972;51.784;4.660;2024-02-16T03:46:36;100989.38;;;10.95;84.39
83100;BME280;72972;51.784;4.660;2024-02-16T03:49:09;101002.06;;;10.96;84.08
83100;BME280;72972;51.784;4.660;2024-02-16T03:51:42;100975.34;;;10.83;84.28
83100;BME280;72972;51.784;4.660;2024-02-16T03:54:08;100984.28;;;10.92;83.68
83100;BME280;72972;51.784;4.660;2024-02-16T03:56:36;100973.44;;;10.84;84.25
83100;BME280;72972;51.784;4.660;2024-02-16T03:59:04;100973.03;;;10.87;83.88
83100;BME280;72972;51.784;4.660;2024-02-16T04:01:33;101005.47;;;10.98;83.89
83100;BME280;72972;51.784;4.660;2024-02-16T04:04:01;100996.06;;;10.86;84.19
83100;BME280;72972;51.784;4.660;2024-02-16T04:06:33;100966.34;;;10.68;84.12
83100;BME280;72972;51.784;4.660;2024-02-16T04:09:07;100996.53;;;10.89;83.74
83100;BME280;72972;51.784;4.660;2024-02-16T04:11:33;100996.91;;;10.86;83.90
83100;BME280;72972;51.784;4.660;2024-02-16T04:14:02;100986.06;;;10.78;84.72
83100;BME280;72972;51.784;4.660;2024-02-16T04:16:45;100969.41;;;10.80;84.30
83100;BME280;72972;51.784;4.660;2024-02-16T04:19:13;100995.28;;;10.92;84.26
83100;BME280;72972;51.784;4.660;2024-02-16T04:21:39;100991.41;;;10.86;84.00
83100;BME280;72972;51.784;4.660;2024-02-16T04:24:06;100976.06;;;10.71;84.66
83100;BME280;72972;51.784;4.660;2024-02-16T04:26:32;100987.09;;;10.77;84.66
83100;BME280;72972;51.784;4.660;2024-02-16T04:28:57;100984.81;;;10.81;84.59
83100;BME280;72972;51.784;4.660;2024-02-16T04:31:32;100981.44;;;10.79;84.47
83100;BME280;72972;51.784;4.660;2024-02-16T04:34:00;100977.44;;;10.81;84.57
83100;BME280;72972;51.784;4.660;2024-02-16T04:36:29;100974.69;;;10.81;85.04
83100;BME280;72972;51.784;4.660;2024-02-16T04:38:55;100978.72;;;10.85;84.57
83100;BME280;72972;51.784;4.660;2024-02-16T04:41:24;101002.06;;;10.96;84.56
83100;BME280;72972;51.784;4.660;2024-02-16T04:43:49;100958.72;;;10.70;84.80
83100;BME280;72972;51.784;4.660;2024-02-16T04:46:18;100967.03;;;10.77;84.31
83100;BME280;72972;51.784;4.660;2024-02-16T04:48:47;100979.50;;;10.79;84.75
83100;BME280;72972;51.784;4.660;2024-02-16T04:51:13;100977.91;;;10.85;84.63
83100;BME280;72972;51.784;4.660;2024-02-16T04:53:42;100975.94;;;10.79;84.66
83100;BME280;72972;51.784;4.660;2024-02-16T04:56:16;100982.59;;;10.91;84.75
83100;BME280;72972;51.784;4.660;2024-02-16T04:58:42;101009.50;;;11.02;84.71
83100;BME280;72972;51.784;4.660;2024-02-16T05:01:12;100970.44;;;10.79;84.94
83100;BME280;72972;51.784;4.660;2024-02-16T05:03:44;100988.72;;;10.93;84.85
83100;BME280;72972;51.784;4.660;2024-02-16T05:06:13;100984.28;;;10.92;84.70
83100;BME280;72972;51.784;4.660;2024-02-16T05:08:49;100987.22;;;10.90;85.55
83100;BME280;72972;51.784;4.660;2024-02-16T05:11:18;101001.84;;;10.97;85.22
83100;BME280;72972;51.784;4.660;2024-02-16T05:13:58;100991.94;;;10.96;84.83
83100;BME280;72972;51.784;4.660;2024-02-16T05:16:27;100994.56;;;11.04;84.83
83100;BME280;72972;51.784;4.660;2024-02-16T05:18:55;100989.47;;;11.01;84.86
83100;BME280;72972;51.784;4.660;2024-02-16T05:21:27;100989.47;;;11.01;84.96
83100;BME280;72972;51.784;4.660;2024-02-16T05:23:53;100998.31;;;11.03;85.30
83100;BME280;72972;51.784;4.660;2024-02-16T05:26:22;100989.66;;;11.00;85.57
83100;BME280;72972;51.784;4.660;2024-02-16T05:28:50;100991.22;;;11.09;85.28
83100;BME280;72972;51.784;4.660;2024-02-16T05:31:19;101007.56;;;11.17;85.33
83100;BME280;72972;51.784;4.660;2024-02-16T05:33:49;100989.13;;;11.11;85.23
83100;BME280;72972;51.784;4.660;2024-02-16T05:36:24;100980.25;;;11.09;85.11
83100;BME280;72972;51.784;4.660;2024-02-16T05:38:59;100981.94;;;11.10;84.98
83100;BME280;72972;51.784;4.660;2024-02-16T05:41:44;100981.94;;;11.10;85.20
83100;BME280;72972;51.784;4.660;2024-02-16T05:44:12;100996.97;;;11.14;85.63
83100;BME280;72972;51.784;4.660;2024-02-16T05:46:41;101000.63;;;11.21;85.35
83100;BME280;72972;51.784;4.660;2024-02-16T05:49:15;101027.97;;;11.29;85.28
83100;BME280;72972;51.784;4.660;2024-02-16T05:51:52;101038.34;;;11.33;85.63
83100;BME280;72972;51.784;4.660;2024-02-16T05:54:47;101023.88;;;11.25;85.12
83100;BME280;72972;51.784;4.660;2024-02-16T05:57:14;101017.38;;;11.26;85.14
83100;BME280;72972;51.784;4.660;2024-02-16T05:59:45;101000.13;;;11.11;85.41
83100;BME280;72972;51.784;4.660;2024-02-16T06:02:16;101004.81;;;11.17;85.04
83100;BME280;72972;51.784;4.660;2024-02-16T06:04:44;101001.22;;;11.16;85.46
83100;BME280;72972;51.784;4.660;2024-02-16T06:07:16;101020.75;;;11.28;84.91
83100;BME280;72972;51.784;4.660;2024-02-16T06:09:45;101017.97;;;11.21;85.18
83100;BME280;72972;51.784;4.660;2024-02-16T06:12:16;101022.59;;;11.21;85.75
83100;BME280;72972;51.784;4.660;2024-02-16T06:14:42;101030.81;;;11.21;85.72
83100;BME280;72972;51.784;4.660;2024-02-16T06:17:13;101052.28;;;11.32;85.65
83100;BME280;72972;51.784;4.660;2024-02-16T06:19:43;101033.56;;;11.21;85.37
83100;BME280;72972;51.784;4.660;2024-02-16T06:22:09;101039.97;;;11.28;85.94
83100;BME280;72972;51.784;4.660;2024-02-16T06:24:38;101029.47;;;11.10;85.95
83100;BME280;72972;51.784;4.660;2024-02-16T06:27:16;101035.47;;;11.20;86.18
83100;BME280;72972;51.784;4.660;2024-02-16T06:29:42;101018.00;;;11.07;86.17
83100;BME280;72972;51.784;4.660;2024-02-16T06:32:08;101023.78;;;11.12;86.51
83100;BME280;72972;51.784;4.660;2024-02-16T06:34:39;101040.13;;;11.20;86.49
83100;BME280;72972;51.784;4.660;2024-02-16T06:37:13;101042.78;;;11.13;86.57
83100;BME280;72972;51.784;4.660;2024-02-16T06:39:47;101047.50;;;11.19;86.89
83100;BME280;72972;51.784;4.660;2024-02-16T06:42:22;101029.94;;;11.14;87.22
83100;BME280;72972;51.784;4.660;2024-02-16T06:44:53;101052.19;;;11.25;86.89
83100;BME280;72972;51.784;4.660;2024-02-16T06:47:22;101069.16;;;11.29;87.26
83100;BME280;72972;51.784;4.660;2024-02-16T06:49:50;101087.06;;;11.46;87.12
83100;BME280;72972;51.784;4.660;2024-02-16T06:52:19;101063.09;;;11.40;86.90
83100;BME280;72972;51.784;4.660;2024-02-16T06:54:48;101063.75;;;11.42;86.63
83100;BME280;72972;51.784;4.660;2024-02-16T06:57:21;101076.50;;;11.49;86.70
83100;BME280;72972;51.784;4.660;2024-02-16T06:59:56;101054.66;;;11.41;86.69
83100;BME280;72972;51.784;4.660;2024-02-16T07:02:36;101082.06;;;11.56;86.77
83100;BME280;72972;51.784;4.660;2024-02-16T07:05:10;101078.84;;;11.67;86.48
83100;BME280;72972;51.784;4.660;2024-02-16T07:07:51;101078.84;;;11.67;86.38
83100;BME280;72972;51.784;4.660;2024-02-16T07:10:22;101078.84;;;11.67;86.41
83100;BME280;72972;51.784;4.660;2024-02-16T07:12:58;101102.59;;;11.81;86.07
83100;BME280;72972;51.784;4.660;2024-02-16T07:15:27;101089.47;;;11.76;86.14
83100;BME280;72972;51.784;4.660;2024-02-16T07:17:58;101093.06;;;11.77;85.92
83100;BME280;72972;51.784;4.660;2024-02-16T07:20:31;101108.63;;;11.91;85.75
83100;BME280;72972;51.784;4.660;2024-02-16T07:23:00;101116.47;;;11.94;85.72
83100;BME280;72972;51.784;4.660;2024-02-16T07:25:37;101132.44;;;12.05;85.07
83100;BME280;72972;51.784;4.660;2024-02-16T07:28:04;101142.22;;;12.14;85.34
83100;BME280;72972;51.784;4.660;2024-02-16T07:30:33;101133.72;;;12.09;85.61
83100;BME280;72972;51.784;4.660;2024-02-16T07:33:08;101134.97;;;12.06;85.57
83100;BME280;72972;51.784;4.660;2024-02-16T07:35:37;101130.31;;;12.07;85.34
83100;BME280;72972;51.784;4.660;2024-02-16T07:38:21;101126.00;;;11.98;85.40
83100;BME280;72972;51.784;4.660;2024-02-16T07:40:53;101130.69;;;12.04;85.60
83100;BME280;72972;51.784;4.660;2024-02-16T07:43:27;101144.50;;;12.10;85.44
83100;BME280;72972;51.784;4.660;2024-02-16T07:45:56;101169.34;;;12.23;85.50
83100;BME280;72972;51.784;4.660;2024-02-16T07:48:31;101151.50;;;12.13;85.55
83100;BME280;72972;51.784;4.660;2024-02-16T07:51:05;101149.16;;;12.10;85.84
83100;BME280;72972;51.784;4.660;2024-02-16T07:53:40;101136.59;;;12.01;85.72
83100;BME280;72972;51.784;4.660;2024-02-16T07:56:07;101164.63;;;12.11;86.23
83100;BME280;72972;51.784;4.660;2024-02-16T07:58:34;101147.25;;;12.10;86.14
83100;BME280;72972;51.784;4.660;2024-02-16T08:01:07;101167.88;;;12.21;85.97
83100;BME280;72972;51.784;4.660;2024-02-16T08:04:11;101166.59;;;12.23;86.15
83100;BME280;72972;51.784;4.660;2024-02-16T08:06:51;101171.28;;;12.23;86.38
83100;BME280;72972;51.784;4.660;2024-02-16T08:09:32;101186.38;;;12.33;86.61
83100;BME280;72972;51.784;4.660;2024-02-16T08:12:07;101158.41;;;12.30;86.49
83100;BME280;72972;51.784;4.660;2024-02-16T08:14:42;101150.50;;;12.20;88.10
83100;BME280;72972;51.784;4.660;2024-02-16T08:17:25;101167.72;;;12.29;88.11
83100;BME280;72972;51.784;4.660;2024-02-16T08:20:03;101173.88;;;12.31;88.53
83100;BME280;72972;51.784;4.660;2024-02-16T08:22:40;101188.88;;;12.28;89.25
83100;BME280;72972;51.784;4.660;2024-02-16T08:25:20;101164.84;;;12.16;89.18
83100;BME280;72972;51.784;4.660;2024-02-16T08:27:54;101216.22;;;12.36;89.72
83100;BME280;72972;51.784;4.660;2024-02-16T08:30:23;101204.47;;;12.21;89.92
83100;BME280;72972;51.784;4.660;2024-02-16T08:33:16;101198.97;;;12.21;90.03
83100;BME280;72972;51.784;4.660;2024-02-16T08:35:41;101224.88;;;12.33;90.58
83100;BME280;72972;51.784;4.660;2024-02-16T08:38:22;101197.63;;;12.11;91.08
83100;BME280;72972;51.784;4.660;2024-02-16T08:43:47;101200.97;;;12.06;92.43
83100;BME280;72972;51.784;4.660;2024-02-16T08:46:13;101225.94;;;12.11;93.28
83100;BME280;72972;51.784;4.660;2024-02-16T08:48:39;101238.06;;;12.17;93.98
83100;BME280;72972;51.784;4.660;2024-02-16T08:51:15;101230.66;;;12.17;94.18
83100;BME280;72972;51.784;4.660;2024-02-16T08:53:42;101225.50;;;12.08;94.37
83100;BME280;72972;51.784;4.660;2024-02-16T08:56:10;101236.94;;;12.11;94.50
83100;BME280;72972;51.784;4.660;2024-02-16T08:58:45;101254.81;;;12.22;94.06
83100;BME280;72972;51.784;4.660;2024-02-16T09:02:01;101234.53;;;12.02;94.31
83100;BME280;72972;51.784;4.660;2024-02-16T09:04:39;101260.66;;;12.12;94.40
83100;BME280;72972;51.784;4.660;2024-02-16T09:07:22;101248.53;;;12.07;94.41
83100;BME280;72972;51.784;4.660;2024-02-16T09:10:25;101248.47;;;12.00;94.18
83100;BME280;72972;51.784;4.660;2024-02-16T09:13:21;101257.72;;;12.14;94.11
83100;BME280;72972;51.784;4.660;2024-02-16T09:16:02;101257.56;;;12.01;93.99
83100;BME280;72972;51.784;4.660;2024-02-16T09:19:30;101295.41;;;12.20;94.31
83100;BME280;72972;51.784;4.660;2024-02-16T09:22:18;101262.16;;;11.94;94.60
83100;BME280;72972;51.784;4.660;2024-02-16T09:25:30;101313.72;;;12.13;94.81
83100;BME280;72972;51.784;4.660;2024-02-16T09:28:25;101283.03;;;11.88;95.32
83100;BME280;72972;51.784;4.660;2024-02-16T09:31:13;101331.09;;;12.13;95.00
83100;BME280;72972;51.784;4.660;2024-02-16T09:33:48;101320.78;;;12.01;95.13
83100;BME280;72972;51.784;4.660;2024-02-16T09:36:28;101321.56;;;11.95;95.95
83100;BME280;72972;51.784;4.660;2024-02-16T09:39:05;101326.44;;;11.93;96.11
83100;BME280;72972;51.784;4.660;2024-02-16T09:41:59;101305.44;;;11.71;97.36
83100;BME280;72972;51.784;4.660;2024-02-16T09:44:40;101349.63;;;11.90;97.85
83100;BME280;72972;51.784;4.660;2024-02-16T09:47:26;101351.66;;;11.82;98.32
83100;BME280;72972;51.784;4.660;2024-02-16T09:50:14;101370.72;;;11.83;98.61
83100;BME280;72972;51.784;4.660;2024-02-16T09:53:12;101376.78;;;11.79;98.84
83100;BME280;72972;51.784;4.660;2024-02-16T09:56:41;101363.22;;;11.63;99.00
83100;BME280;72972;51.784;4.660;2024-02-16T09:59:58;101382.09;;;11.66;99.37
83100;BME280;72972;51.784;4.660;2024-02-16T10:02:44;101380.84;;;11.54;99.32
83100;BME280;72972;51.784;4.660;2024-02-16T10:05:36;101404.53;;;11.55;99.68
83100;BME280;72972;51.784;4.660;2024-02-16T10:08:19;101382.25;;;11.50;100.00
83100;BME280;72972;51.784;4.660;2024-02-16T10:11:44;101421.22;;;11.68;99.98
83100;BME280;72972;51.784;4.660;2024-02-16T10:14:33;101407.25;;;11.40;100.00
83100;BME280;72972;51.784;4.660;2024-02-16T10:17:11;101428.84;;;11.43;100.00
83100;BME280;72972;51.784;4.660;2024-02-16T10:20:01;101444.97;;;11.46;100.00
83100;BME280;72972;51.784;4.660;2024-02-16T10:22:40;101456.63;;;11.48;100.00
83100;BME280;72972;51.784;4.660;2024-02-16T10:25:09;101431.31;;;11.38;100.00
83100;BME280;72972;51.784;4.660;2024-02-16T10:28:27;101433.03;;;11.39;100.00
83100;BME280;72972;51.784;4.660;2024-02-16T10:31:12;101427.63;;;11.31;100.00
83100;BME280;72972;51.784;4.660;2024-02-16T10:34:26;101454.25;;;11.45;100.00
83100;BME280;72972;51.784;4.660;2024-02-16T10:37:00;101448.91;;;11.29;100.00
83100;BME280;72972;51.784;4.660;2024-02-16T10:39:32;101470.63;;;11.39;100.00
83100;BME280;72972;51.784;4.660;2024-02-16T10:42:00;101454.78;;;11.26;100.00
83100;BME280;72972;51.784;4.660;2024-02-16T10:44:33;101454.78;;;11.26;100.00
83100;BME280;72972;51.784;4.660;2024-02-16T10:47:09;101448.34;;;11.19;100.00
83100;BME280;72972;51.784;4.660;2024-02-16T10:49:34;101477.34;;;11.36;100.00
83100;BME280;72972;51.784;4.660;2024-02-16T10:52:01;101466.25;;;11.30;100.00
83100;BME280;72972;51.784;4.660;2024-02-16T10:54:53;101464.25;;;11.24;100.00
83100;BME280;72972;51.784;4.660;2024-02-16T10:57:25;101469.38;;;11.27;100.00
83100;BME280;72972;51.784;4.660;2024-02-16T11:00:19;101463.81;;;11.35;100.00
83100;BME280;72972;51.784;4.660;2024-02-16T11:02:53;101466.31;;;11.22;100.00
83100;BME280;72972;51.784;4.660;2024-02-16T11:05:34;101509.06;;;11.39;100.00
83100;BME280;72972;51.784;4.660;2024-02-16T11:08:14;101486.50;;;11.29;100.00
83100;BME280;72972;51.784;4.660;2024-02-16T11:11:01;101499.50;;;11.35;100.00
83100;BME280;72972;51.784;4.660;2024-02-16T11:13:34;101486.88;;;11.26;100.00
83100;BME280;72972;51.784;4.660;2024-02-16T11:16:17;101521.28;;;11.36;100.00
83100;BME280;72972;51.784;4.660;2024-02-16T11:18:46;101496.16;;;11.25;100.00
83100;BME280;72972;51.784;4.660;2024-02-16T11:21:21;101498.63;;;11.20;100.00
83100;BME280;72972;51.784;4.660;2024-02-16T11:23:47;101511.09;;;11.22;100.00
83100;BME280;72972;51.784;4.660;2024-02-16T11:26:19;101531.97;;;11.31;100.00
83100;BME280;72972;51.784;4.660;2024-02-16T11:28:46;101548.94;;;11.35;100.00
83100;BME280;72972;51.784;4.660;2024-02-16T11:31:11;101549.94;;;11.34;100.00
83100;BME280;72972;51.784;4.660;2024-02-16T11:33:43;101548.94;;;11.35;100.00
83100;BME280;72972;51.784;4.660;2024-02-16T11:36:24;101542.63;;;11.26;100.00
83100;BME280;72972;51.784;4.660;2024-02-16T11:39:12;101545.16;;;11.13;100.00
83100;BME280;72972;51.784;4.660;2024-02-16T11:41:46;101563.81;;;11.18;100.00
83100;BME280;72972;51.784;4.660;2024-02-16T11:44:21;101576.50;;;11.19;100.00
83100;BME280;72972;51.784;4.660;2024-02-16T11:47:22;101564.25;;;11.07;100.00
83100;BME280;72972;51.784;4.660;2024-02-16T11:50:25;101603.56;;;11.30;100.00
83100;BME280;72972;51.784;4.660;2024-02-16T11:53:07;101589.22;;;11.20;100.00
83100;BME280;72972;51.784;4.660;2024-02-16T11:55:54;101608.63;;;11.41;100.00
83100;BME280;72972;51.784;4.660;2024-02-16T11:58:34;101576.81;;;11.24;100.00
83100;BME280;72972;51.784;4.660;2024-02-16T12:01:14;101609.78;;;11.46;100.00
83100;BME280;72972;51.784;4.660;2024-02-16T12:03:48;101584.19;;;11.23;100.00
83100;BME280;72972;51.784;4.660;2024-02-16T12:06:32;101621.25;;;11.50;100.00
83100;BME280;72972;51.784;4.660;2024-02-16T12:09:15;101604.50;;;11.37;100.00
83100;BME280;72972;51.784;4.660;2024-02-16T12:11:44;101599.03;;;11.37;100.00
83100;BME280;72972;51.784;4.660;2024-02-16T12:14:13;101614.66;;;11.59;100.00
83100;BME280;72972;51.784;4.660;2024-02-16T12:16:51;101616.53;;;11.58;100.00
83100;BME280;72972;51.784;4.660;2024-02-16T12:19:28;101612.28;;;11.56;100.00
83100;BME280;72972;51.784;4.660;2024-02-16T12:22:10;101620.16;;;11.59;100.00
83100;BME280;72972;51.784;4.660;2024-02-16T12:24:45;101620.31;;;11.65;100.00
83100;BME280;72972;51.784;4.660;2024-02-16T12:28:22;101617.47;;;11.73;100.00
83100;BME280;72972;51.784;4.660;2024-02-16T12:31:09;101620.44;;;11.86;100.00
83100;BME280;72972;51.784;4.660;2024-02-16T12:34:05;101620.00;;;11.97;100.00
83100;BME280;72972;51.784;4.660;2024-02-16T12:36:43;101651.31;;;12.25;99.92
83100;BME280;72972;51.784;4.660;2024-02-16T12:39:16;101639.94;;;12.14;99.28
83100;BME280;72972;51.784;4.660;2024-02-16T12:49:43;101679.03;;;12.38;98.23
83100;BME280;72972;51.784;4.660;2024-02-16T12:52:20;101662.44;;;12.32;97.53
83100;BME280;72972;51.784;4.660;2024-02-16T12:54:52;101666.88;;;12.33;97.41
83100;BME280;72972;51.784;4.660;2024-02-16T12:58:23;101655.59;;;12.28;96.99
83100;BME280;72972;51.784;4.660;2024-02-16T13:00:57;101669.63;;;12.33;97.49
83100;BME280;72972;51.784;4.660;2024-02-16T13:03:28;101656.94;;;12.32;97.55
83100;BME280;72972;51.784;4.660;2024-02-16T13:06:17;101705.69;;;12.53;96.76
83100;BME280;72972;51.784;4.660;2024-02-16T13:08:52;101708.75;;;12.43;96.61
83100;BME280;72972;51.784;4.660;2024-02-16T13:11:34;101679.56;;;12.19;97.07
83100;BME280;72972;51.784;4.660;2024-02-16T13:14:06;101723.13;;;12.45;97.04
83100;BME280;72972;51.784;4.660;2024-02-16T13:17:03;101686.38;;;12.23;97.21
83100;BME280;72972;51.784;4.660;2024-02-16T13:19:41;101688.75;;;12.12;97.28
83100;BME280;72972;51.784;4.660;2024-02-16T13:22:13;101695.31;;;12.11;97.24
83100;BME280;72972;51.784;4.660;2024-02-16T13:24:48;101707.63;;;12.15;97.11
83100;BME280;72972;51.784;4.660;2024-02-16T13:27:26;101732.19;;;12.16;97.67
83100;BME280;72972;51.784;4.660;2024-02-16T13:29:57;101712.91;;;12.02;97.89
83100;BME280;72972;51.784;4.660;2024-02-16T13:32:26;101699.59;;;11.91;98.03
83100;BME280;72972;51.784;4.660;2024-02-16T13:35:33;101739.31;;;12.11;97.89
83100;BME280;72972;51.784;4.660;2024-02-16T13:38:34;101746.19;;;12.07;98.24